createdAt,value
2023-05-07T00:04:01.149Z,3.60
2023-05-07T00:09:04.536Z,3.67
2023-05-07T00:14:06.234Z,4.88
2023-05-07T00:19:08.131Z,3.92
2023-05-07T00:24:09.765Z,2.78
2023-05-07T00:29:11.413Z,3.75
2023-05-07T00:34:13.053Z,3.13
2023-05-07T00:39:15.026Z,5.13
2023-05-07T00:44:16.802Z,2.63
2023-05-07T00:49:19.592Z,3.55
2023-05-07T00:54:22.669Z,6.65
2023-05-07T00:59:24.730Z,4.45
2023-05-07T01:04:27.822Z,2.92
2023-05-07T01:09:30.252Z,3.13
2023-05-07T01:14:34.050Z,4.63
2023-05-07T01:19:36.156Z,5.15
2023-05-07T01:24:39.046Z,5.70
2023-05-07T01:29:42.737Z,3.97
2023-05-07T01:34:47.423Z,3.60
2023-05-07T01:39:49.553Z,6.03
2023-05-07T01:44:52.555Z,3.25
2023-05-07T01:49:54.217Z,3.80
2023-05-07T01:54:56.035Z,5.97
2023-05-07T01:59:58.112Z,3.47
2023-05-07T02:05:00.431Z,5.30
2023-05-07T02:10:02.779Z,6.03
2023-05-07T02:15:05.033Z,6.47
2023-05-07T02:20:14.121Z,5.95
2023-05-07T02:25:16.907Z,5.07
2023-05-07T02:30:18.903Z,5.45
2023-05-07T02:35:20.596Z,4.57
2023-05-07T02:40:22.347Z,4.88
2023-05-07T02:45:24.241Z,4.00
2023-05-07T02:50:28.418Z,4.53
2023-05-07T02:55:32.357Z,4.28
2023-05-07T03:00:34.702Z,4.45
2023-05-07T03:05:48.742Z,4.90
2023-05-07T03:10:50.687Z,9.68
2023-05-07T03:15:52.664Z,5.45
2023-05-07T03:20:54.677Z,6.78
2023-05-07T03:25:56.956Z,4.30
2023-05-07T03:30:58.964Z,5.88
2023-05-07T03:36:00.998Z,6.50
2023-05-07T03:41:03.897Z,7.28
2023-05-07T03:46:06.097Z,9.32
2023-05-07T03:51:07.952Z,7.53
2023-05-07T03:56:09.827Z,9.77
2023-05-07T04:01:14.830Z,9.27
2023-05-07T04:06:18.413Z,9.77
2023-05-07T04:11:22.872Z,17.58
2023-05-07T04:16:24.947Z,12.43
2023-05-07T04:21:27.436Z,15.18
2023-05-07T04:26:30.454Z,13.98
2023-05-07T04:31:32.875Z,14.65
2023-05-07T04:36:35.094Z,13.40
2023-05-07T04:41:41.227Z,14.98
2023-05-07T04:46:43.961Z,16.85
2023-05-07T04:51:46.057Z,18.50
2023-05-07T04:56:50.538Z,25.33
2023-05-07T05:01:53.120Z,22.13
2023-05-07T05:06:55.284Z,21.85
2023-05-07T05:11:57.128Z,27.38
2023-05-07T05:16:59.083Z,23.38
2023-05-07T05:22:02.145Z,26.83
2023-05-07T05:27:05.333Z,26.63
2023-05-07T05:32:07.439Z,26.90
2023-05-07T05:37:10.285Z,24.67
2023-05-07T05:42:12.220Z,26.23
2023-05-07T05:47:14.975Z,26.65
2023-05-07T05:52:18.167Z,26.42
2023-05-07T05:57:21.333Z,28.10
2023-05-07T06:02:23.299Z,24.58
2023-05-07T06:07:26.224Z,26.65
2023-05-07T06:12:28.623Z,27.67
2023-05-07T06:17:30.375Z,24.48
2023-05-07T06:22:32.406Z,25.00
2023-05-07T06:27:34.517Z,23.00
2023-05-07T06:32:37.705Z,24.42
2023-05-07T06:37:40.598Z,22.65
2023-05-07T06:42:43.168Z,22.50
2023-05-07T06:48:17.119Z,24.95
2023-05-07T06:53:30.296Z,20.92
2023-05-07T06:58:33.955Z,24.45
2023-05-07T07:03:36.015Z,23.02
2023-05-07T07:08:39.715Z,22.00
2023-05-07T07:13:43.812Z,18.90
2023-05-07T07:18:46.000Z,19.13
2023-05-07T07:23:47.665Z,20.60
2023-05-07T07:28:50.044Z,19.83
2023-05-07T07:33:55.268Z,19.90
2023-05-07T07:38:57.080Z,19.23
2023-05-07T07:43:59.460Z,19.92
2023-05-07T07:49:01.278Z,18.73
2023-05-07T07:54:03.907Z,16.20
2023-05-07T07:59:07.611Z,18.23
2023-05-07T08:04:13.115Z,16.85
2023-05-07T08:09:17.132Z,17.25
2023-05-07T08:14:20.825Z,17.25
2023-05-07T08:19:23.960Z,17.73
2023-05-07T08:24:26.340Z,17.70
2023-05-07T08:29:28.712Z,14.82
2023-05-07T08:34:30.409Z,16.10
2023-05-07T08:39:34.076Z,13.68
2023-05-07T08:44:36.323Z,14.27
2023-05-07T08:49:38.189Z,14.82
2023-05-07T08:54:42.601Z,15.25
2023-05-07T08:59:45.595Z,12.40
2023-05-07T09:04:47.403Z,10.82
2023-05-07T09:09:49.394Z,12.20
2023-05-07T09:14:51.198Z,12.80
2023-05-07T09:19:54.455Z,12.73
2023-05-07T09:24:56.227Z,10.57
2023-05-07T09:30:04.983Z,11.50
2023-05-07T09:35:15.290Z,11.32
2023-05-07T09:40:25.198Z,11.55
2023-05-07T09:45:29.612Z,10.60
2023-05-07T09:50:50.922Z,11.85
2023-05-07T09:55:56.628Z,10.43
2023-05-07T10:00:58.814Z,10.13
2023-05-07T10:06:02.013Z,11.32
2023-05-07T10:11:05.989Z,13.35
2023-05-07T10:16:08.560Z,12.80
2023-05-07T10:21:22.508Z,11.25
2023-05-07T10:32:10.082Z,12.88
2023-05-07T10:37:13.857Z,11.80
2023-05-07T10:42:17.028Z,9.68
2023-05-07T10:47:24.853Z,13.13
2023-05-07T10:52:31.343Z,10.15
2023-05-07T10:57:39.642Z,10.00
2023-05-07T11:03:10.630Z,10.55
2023-05-07T11:08:18.415Z,10.32
2023-05-07T11:13:43.203Z,7.75
2023-05-07T11:18:49.815Z,7.43
2023-05-07T11:29:12.835Z,8.65
2023-05-07T11:34:21.469Z,7.57
2023-05-07T11:39:32.624Z,8.25
2023-05-07T11:44:47.198Z,13.32
2023-05-07T11:49:51.338Z,6.55
2023-05-07T11:54:58.274Z,10.68
2023-05-07T12:00:02.786Z,7.93
2023-05-07T12:05:14.478Z,7.05
2023-05-07T12:10:16.584Z,5.50
2023-05-07T12:15:18.697Z,5.45
2023-05-07T12:20:20.447Z,7.88
2023-05-07T12:25:22.115Z,5.85
2023-05-07T12:30:23.718Z,5.97
2023-05-07T12:35:32.822Z,4.35
2023-05-07T12:40:41.977Z,4.25
2023-05-07T12:45:43.827Z,6.22
2023-05-07T12:50:45.656Z,4.35
2023-05-07T12:55:49.357Z,4.88
2023-05-07T13:00:52.168Z,6.75
2023-05-07T13:05:58.937Z,4.43
2023-05-07T13:11:04.551Z,3.90
2023-05-07T13:16:09.689Z,3.70
2023-05-07T13:21:14.334Z,4.15
2023-05-07T13:26:26.285Z,5.20
2023-05-07T13:31:28.937Z,5.88
2023-05-07T13:36:33.965Z,4.75
2023-05-07T13:41:35.612Z,3.92
2023-05-07T13:46:37.439Z,3.30
2023-05-07T13:51:39.327Z,3.50
2023-05-07T13:56:41.210Z,8.82
2023-05-07T14:01:42.878Z,3.78
2023-05-07T14:06:44.729Z,3.28
2023-05-07T14:11:48.522Z,5.60
2023-05-07T14:16:51.120Z,4.07
2023-05-07T14:21:53.131Z,3.35
2023-05-07T14:26:54.876Z,3.58
2023-05-07T14:31:56.622Z,4.45
2023-05-07T14:37:01.371Z,3.90
2023-05-07T14:42:03.164Z,3.03
2023-05-07T14:47:04.881Z,2.30
2023-05-07T14:52:07.207Z,2.75
2023-05-07T14:57:10.821Z,4.53
2023-05-07T15:02:13.209Z,3.97
2023-05-07T15:07:16.299Z,2.28
2023-05-07T15:12:18.269Z,4.80
2023-05-07T15:17:19.887Z,3.35
2023-05-07T15:22:22.745Z,5.65
2023-05-07T15:27:24.774Z,2.30
2023-05-07T15:32:26.729Z,4.90
2023-05-07T15:37:28.405Z,3.25
2023-05-07T15:42:30.054Z,2.50
2023-05-07T15:47:34.097Z,3.47
2023-05-07T15:52:35.981Z,5.88
2023-05-07T15:57:37.630Z,5.88
2023-05-07T16:02:39.871Z,4.00
2023-05-07T16:07:44.152Z,3.78
2023-05-07T16:12:45.824Z,4.63
2023-05-07T16:17:51.856Z,3.70
2023-05-07T16:22:53.617Z,3.30
2023-05-07T16:27:56.514Z,3.45
2023-05-07T16:32:58.245Z,3.15
2023-05-07T16:38:00.316Z,3.63
2023-05-07T16:43:03.868Z,5.38
2023-05-07T16:48:06.033Z,7.22
2023-05-07T16:53:07.763Z,5.75
2023-05-07T16:58:11.003Z,3.70
2023-05-07T17:03:13.010Z,3.35
2023-05-07T17:08:15.181Z,3.88
2023-05-07T17:13:17.046Z,5.63
2023-05-07T17:18:18.924Z,6.70
2023-05-07T17:23:20.736Z,7.18
2023-05-07T17:28:22.614Z,7.80
2023-05-07T17:33:24.280Z,4.93
2023-05-07T17:38:26.266Z,5.53
2023-05-07T17:43:27.974Z,5.25
2023-05-07T17:48:29.615Z,6.97
2023-05-07T17:53:31.299Z,6.80
2023-05-07T17:58:35.011Z,6.70
2023-05-07T18:03:40.497Z,6.97
2023-05-07T18:08:42.187Z,7.90
2023-05-07T18:13:43.787Z,9.18
2023-05-07T18:18:46.896Z,9.68
2023-05-07T18:23:49.608Z,12.45
2023-05-07T18:28:51.416Z,14.80
2023-05-07T18:33:54.316Z,16.77
2023-05-07T18:38:55.992Z,12.98
2023-05-07T18:43:57.945Z,13.80
2023-05-07T18:48:59.596Z,13.25
2023-05-07T18:54:04.079Z,14.48
2023-05-07T18:59:05.675Z,15.65
2023-05-07T19:04:07.489Z,18.00
2023-05-07T19:09:09.228Z,18.73
2023-05-07T19:14:11.102Z,17.17
2023-05-07T19:19:12.897Z,15.32
2023-05-07T19:24:14.610Z,15.30
2023-05-07T19:29:18.136Z,18.95
2023-05-07T19:34:20.261Z,23.38
2023-05-07T19:39:21.963Z,21.23
2023-05-07T19:44:23.600Z,22.40
2023-05-07T19:49:25.405Z,20.48
2023-05-07T19:54:28.903Z,22.17
2023-05-07T19:59:30.599Z,23.75
2023-05-07T20:04:37.274Z,21.33
2023-05-07T20:09:38.895Z,21.35
2023-05-07T20:14:40.676Z,22.15
2023-05-07T20:19:42.273Z,19.80
2023-05-07T20:24:43.884Z,22.83
2023-05-07T20:29:46.852Z,22.85
2023-05-07T20:34:48.496Z,20.95
2023-05-07T20:39:50.221Z,18.52
2023-05-07T20:44:51.923Z,20.95
2023-05-07T20:49:54.771Z,19.92
2023-05-07T20:54:56.564Z,18.13
2023-05-07T20:59:58.182Z,16.95
2023-05-07T21:04:59.781Z,17.98
2023-05-07T21:10:01.587Z,17.15
2023-05-07T21:15:03.806Z,17.23
2023-05-07T21:20:06.076Z,17.10
2023-05-07T21:25:08.109Z,18.75
2023-05-07T21:30:10.753Z,15.73
2023-05-07T21:35:13.177Z,15.77
2023-05-07T21:40:15.287Z,19.17
2023-05-07T21:45:17.235Z,18.67
2023-05-07T21:50:19.320Z,17.00
2023-05-07T21:55:21.131Z,16.58
2023-05-07T22:00:23.786Z,13.90
2023-05-07T22:05:25.418Z,16.45
2023-05-07T22:10:27.072Z,12.95
2023-05-07T22:15:28.680Z,14.00
2023-05-07T22:20:30.335Z,14.77
2023-05-07T22:25:34.587Z,12.15
2023-05-07T22:30:36.212Z,12.93
2023-05-07T22:35:37.952Z,10.63
2023-05-07T22:40:39.618Z,11.05
2023-05-07T22:45:41.789Z,10.32
2023-05-07T22:50:43.395Z,9.07
2023-05-07T22:55:45.016Z,10.30
2023-05-07T23:00:47.499Z,9.60
2023-05-07T23:05:49.305Z,10.43
2023-05-07T23:10:50.910Z,12.40
2023-05-07T23:15:52.548Z,9.85
2023-05-07T23:20:54.117Z,12.95
2023-05-07T23:25:55.948Z,11.85
2023-05-07T23:30:57.657Z,11.70
2023-05-07T23:36:04.594Z,14.52
2023-05-07T23:41:06.322Z,13.73
2023-05-07T23:46:07.953Z,11.45
2023-05-07T23:51:09.563Z,11.50
2023-05-07T23:56:11.318Z,11.60
